World of Logs combat log analyzer allows gamers to save, share and analyze their raiding experiences conveniently and thoroughly in the Blizzard MMO World of Warcraft. If you're new here, make sure you check out the tour for a 1 minute introduction. If you have any questions, we're happy to answer them on the forums.

DPS HPS
Odyn
Helya
Guarm
Reports for Sartharion - statistics
# Date Time Damage DPS Guild Realm
1 07 Nov 2011 01:04 12.26M 189584.1 Logs EU-Aegwynn
2 01 Mar 2010 01:12 9.78M 134286.3 In Flames EU-Antonidas
3 18 Nov 2011 01:13 11.90M 161986.5 Rising Darkness EU-Eitrigg
4 02 Mar 2010 01:20 9.86M 122941.8 Тень Свободы EU-Ткач Смерти
5 14 Sep 2011 01:46 10.29M 96799.7 Hells Heroes US-Muradin
6 29 Dec 2009 02:02 12.15M 98975.2 The Angrydome US-Khaz Modan
7 18 Mar 2010 02:03 10.73M 86613.2 Venividivici EU-Exodar
8 14 Oct 2009 02:12 10.33M 78203.6 Wolfgrowls Company EU-Thunderhorn
9 07 Jan 2010 02:18 14.21M 102540.6 Serénity US-Silvermoon
10 03 May 2018 02:27 14.74M 100135.0 Blackbird-SW EU-Kirin Tor
11 23 Feb 2010 02:31 14.05M 92982.8 Dust US-The Scryers
12 23 Feb 2010 02:31 14.05M 92907.8 Dust US-The Scryers
13 20 Jan 2010 02:34 11.77M 76052.3 Exhumed EU-Shadowsong
14 13 Jan 2010 02:53 13.61M 78321.9 Icefall US-Bronzebeard
15 28 Feb 2010 02:57 14.66M 82782.1 Initech US-Cairne
16 14 Jan 2010 02:58 14.76M 82819.6 Dark Matter US-Ghostlands
17 08 Oct 2009 03:09 14.26M 75367.1 Warseeker Tribe EU-Aggramar
18 11 May 2018 03:09 18.20M 96033.7 Blackbird-SW EU-Kirin Tor
19 07 Apr 2010 03:18 16.28M 82101.7 Knights of the Storm US-Llane
20 12 Jan 2010 03:20 14.68M 73346.1 Twìlíght US-Alexstrasza
21 14 Jan 2010 03:22 15.24M 75127.6 Forgotten Heroes EU-Frostmane
22 14 Jan 2010 03:23 14.57M 71673.7 Cercle Infini EU-Kael'thas
23 21 Feb 2010 03:24 15.06M 73674.2 Apocalyptic Angels US-Duskwood
24 25 Apr 2010 03:30 15.32M 72853.8 Форпост Сержанта Пеппера EU-Борейская тундра
25 21 Jan 2010 03:36 14.71M 67982.2 Ride The Lightning US-Malfurion
26 17 Jan 2010 03:36 14.55M 67143.2 Knights who say Ni US-Icecrown
27 28 Apr 2010 03:39 14.95M 68039.3 Vega US-Doomhammer
28 20 Apr 2010 03:43 16.35M 73251.1 The Numbers Game US-Silver Hand
29 16 Mar 2018 03:59 26.81M 112018.8 Obscenity EU-The Sha'tar
30 20 Mar 2010 04:00 14.80M 61601.8 Frankenraid US-Perenolde
31 09 Mar 2010 04:07 14.31M 57746.3 Fatal Union US-Garona
32 10 Apr 2009 04:08 14.58M 58686.4 DPS Vendor US-Draenor
33 15 May 2009 04:14 15.18M 59563.6 Vagrant US-The Scryers
34 24 Jan 2010 04:20 16.04M 61591.9 Second Covenant US-Skywall
35 07 Oct 2009 04:28 15.37M 57319.9 Deadwood US-Thrall
36 09 Mar 2018 04:29 28.35M 105346.4 Obscenity EU-The Sha'tar
37 06 Jan 2010 04:30 16.33M 60396.8 As One US-Perenolde
38 30 Dec 2009 04:30 15.09M 55731.9 Insert Witty Name Here US-Grizzly Hills
39 15 Jun 2009 04:31 14.92M 55052.2 The Shadow Templar EU-Wildhammer
40 21 Jan 2010 04:34 16.84M 61230.9 Cotton Candy EU-Shadowsong
41 26 May 2009 04:44 15.72M 55256.2 Refuge US-Steamwheedle Cartel
42 30 Sep 2009 04:45 17.06M 59792.3 Deadwood US-Thrall
43 07 Jul 2009 04:47 15.24M 53012.7 Refuge US-Steamwheedle Cartel
44 27 Feb 2018 04:50 28.59M 98316.2 error code EU-The Maelstrom
45 17 Jan 2010 04:51 17.38M 59723.3 Alkoo's Combat Logs US-Feathermoon
46 12 May 2009 04:51 16.17M 55437.6 Refuge US-Steamwheedle Cartel
47 29 Jul 2009 04:54 15.46M 52552.8 Hordish Inquisition US-Khadgar
48 07 Dec 2010 04:54 17.52M 59522.3 Dark Legion EU-Silvermoon
49 21 Jun 2009 05:03 16.62M 54714.4 Primordial Fury US-Nesingwary
50 16 Jun 2009 05:05 16.25M 53284.4 Refuge US-Steamwheedle Cartel
51 22 Jun 2009 05:07 16.15M 52588.0 The Shadow Templar EU-Wildhammer
52 05 Jun 2009 05:17 16.78M 52870.0 Twìlíght US-Alexstrasza
53 16 Jun 2009 05:17 14.08M 44300.6 Ominous US-Sen'jin
54 20 Jan 2009 05:34 16.77M 50174.5 Volcano Legion EU-Neptulon
55 03 Jul 2009 05:34 17.54M 52427.4 Game Theory US-Proudmoore
56 16 Sep 2009 05:34 16.69M 49882.6 Convergence US-Ghostlands
57 09 Jun 2009 05:35 15.77M 47034.5 Hordish Inquisition US-Khadgar
58 13 Jan 2010 05:37 15.59M 46255.8 Trouble and Strife US-Khaz'goroth
59 13 Aug 2009 05:49 16.06M 45932.8 Ungrateful US-Kirin Tor
60 10 May 2018 05:57 31.36M 87610.4 Debauchery Tea Party US-Moon Guard
61 02 Mar 2018 06:00 30.74M 85285.6 Emoji US-Cenarius
62 28 Dec 2009 06:01 17.42M 48178.8 Darkwind EU-Skullcrusher
63 15 Sep 2009 06:11 17.82M 47953.8 Deadwood US-Thrall
64 30 Jun 2009 06:12 16.00M 43007.2 Refuge US-Steamwheedle Cartel
65 09 Jul 2009 06:14 16.12M 43089.4 Elder Tribunal US-Bloodhoof
66 13 Jan 2011 06:14 15.17M 40549.5 The Horde May Cry EU-C'Thun
67 07 Oct 2009 06:14 17.06M 45596.6 The Honourbound Alliance EU-Thunderhorn
68 03 Feb 2009 06:14 16.50M 44068.8 The DMZ EU-Eonar
69 22 Jul 2009 06:19 17.44M 45982.5 Iron Circle US-Llane
70 30 Dec 2008 06:24 16.75M 43567.2 The DMZ EU-Eonar
71 26 Apr 2009 06:24 17.46M 45383.5 Mutiny US-Akama
72 19 May 2009 06:25 17.41M 45216.7 Refuge US-Steamwheedle Cartel
73 10 Nov 2011 06:29 22.78M 58459.6 SSSB EU-Drak'thul
74 18 Jun 2009 06:31 18.73M 47829.8 Elder Tribunal US-Bloodhoof
75 27 Aug 2009 06:42 18.29M 45493.1 B A Z I N G A 2 US-Ner'zhul
76 29 Jun 2011 06:44 19.59M 48430.2 Ungrateful US-Kirin Tor
77 22 Apr 2009 07:06 17.02M 39884.5 Quality US-Argent Dawn
78 26 Jul 2009 07:07 17.18M 40198.6 My Other Mount is Tauren US-Aerie Peak
79 03 Mar 2009 07:11 19.20M 44547.2 The DMZ EU-Eonar
80 02 Aug 2009 07:20 17.93M 40731.1 Game Theory US-Proudmoore
81 20 Jan 2010 07:26 17.40M 38952.0 Way of the Sword US-Steamwheedle Cartel
82 25 Oct 2011 07:42 23.61M 51012.7 Pale Riders EU-Aegwynn
83 25 Jul 2009 07:53 18.30M 38639.0 Vagrant US-The Scryers
84 27 Jan 2009 08:21 19.72M 39323.8 The DMZ EU-Eonar
85 27 Jan 2009 08:21 19.72M 39323.8 The DMZ EU-Eonar
86 21 Jun 2009 08:21 22.29M 44413.0 digusnotgold EU-Wildhammer
87 02 Jun 2009 08:40 19.33M 37146.0 Refuge US-Steamwheedle Cartel
88 06 Jan 2009 08:43 19.38M 37033.5 The DMZ EU-Eonar
89 13 Aug 2009 08:52 19.82M 37241.1 The Chop Shop US-Zangarmarsh
90 09 Apr 2009 09:16 18.99M 34137.1 Quality US-Argent Dawn
91 26 Feb 2009 09:23 20.14M 35730.8 DPS Vendor US-Draenor
92 24 Jan 2010 09:29 19.15M 33626.3 Hardcore Pwn US-Shadow Council
93 14 Apr 2010 09:39 21.06M 36373.8 Vega US-Doomhammer
94 10 Feb 2009 09:51 20.65M 34918.0 The DMZ EU-Eonar
95 21 Nov 2011 09:52 23.98M 40474.9 Pale Riders EU-Aegwynn
96 15 Jul 2010 11:32 19.89M 28729.3 The Eternal US-Hyjal
97 04 Oct 2011 11:41 25.99M 37043.7 Pale Riders EU-Aegwynn
98 07 Mar 2012 13:11 26.50M 33484.5 Amanare EU-Drak'thul
99 24 Nov 2009 13:47 24.20M 29232.2 Defenders of Azeroth US-Thunderhorn

Please do not close the page with the ad you want to report.

I've posted a guide on how to report misbehaving ads on the forum. Please follow the instructions and help make the internet a safer place. Thanks for you time.